createdAt,value
2023-05-12T00:02:51.268Z,14.10
2023-05-12T00:07:12.315Z,14.00
2023-05-12T00:11:21.660Z,14.00
2023-05-12T00:15:30.492Z,14.10
2023-05-12T00:19:40.858Z,14.10
2023-05-12T00:23:49.590Z,14.10
2023-05-12T00:28:18.568Z,14.00
2023-05-12T00:32:28.173Z,13.90
2023-05-12T00:36:36.776Z,13.90
2023-05-12T00:40:45.399Z,13.80
2023-05-12T00:44:54.034Z,13.70
2023-05-12T00:49:03.368Z,13.60
2023-05-12T00:53:45.027Z,13.60
2023-05-12T00:57:43.554Z,13.60
2023-05-12T01:01:52.207Z,13.50
2023-05-12T01:06:19.370Z,13.50
2023-05-12T01:10:28.103Z,13.40
2023-05-12T01:14:36.831Z,13.40
2023-05-12T01:18:49.472Z,13.40
2023-05-12T01:22:59.073Z,13.50
2023-05-12T01:27:08.614Z,13.40
2023-05-12T01:31:20.890Z,13.50
2023-05-12T01:35:28.576Z,13.50
2023-05-12T01:39:37.735Z,13.40
2023-05-12T01:43:46.421Z,13.40
2023-05-12T01:47:55.212Z,13.40
2023-05-12T01:52:04.846Z,13.40
2023-05-12T01:56:13.560Z,13.50
2023-05-12T02:00:22.773Z,13.40
2023-05-12T02:04:31.635Z,13.50
2023-05-12T02:08:40.264Z,13.50
2023-05-12T02:12:48.916Z,13.50
2023-05-12T02:16:57.622Z,13.60
2023-05-12T02:21:06.676Z,13.70
2023-05-12T02:25:15.390Z,13.80
2023-05-12T02:29:24.004Z,13.90
2023-05-12T02:33:32.640Z,13.90
2023-05-12T02:37:41.254Z,13.90
2023-05-12T02:41:49.857Z,14.00
2023-05-12T02:45:58.603Z,14.00
2023-05-12T02:50:09.156Z,14.00
2023-05-12T02:54:17.844Z,14.00
2023-05-12T02:58:26.543Z,14.10
2023-05-12T03:02:39.314Z,14.10
2023-05-12T03:06:48.135Z,14.10
2023-05-12T03:10:56.718Z,14.10
2023-05-12T03:15:26.608Z,14.10
2023-05-12T03:19:35.325Z,14.10
2023-05-12T03:23:44.050Z,14.00
2023-05-12T03:27:52.781Z,14.00
2023-05-12T03:32:01.728Z,14.00
2023-05-12T03:36:10.655Z,14.00
2023-05-12T03:40:19.665Z,14.00
2023-05-12T03:44:28.627Z,14.00
2023-05-12T03:48:37.684Z,13.90
2023-05-12T03:52:46.399Z,13.90
2023-05-12T03:56:55.229Z,14.00
2023-05-12T04:01:04.240Z,13.90
2023-05-12T04:05:13.024Z,13.90
2023-05-12T04:09:22.047Z,13.80
2023-05-12T04:13:34.182Z,13.80
2023-05-12T04:17:43.148Z,13.80
2023-05-12T04:21:51.841Z,13.90
2023-05-12T04:26:00.586Z,13.90
2023-05-12T04:30:10.079Z,13.90
2023-05-12T04:34:20.630Z,13.90
2023-05-12T04:38:29.037Z,13.90
2023-05-12T04:42:37.870Z,13.90
2023-05-12T04:46:46.496Z,13.90
2023-05-12T04:50:55.227Z,13.90
2023-05-12T04:55:04.782Z,13.90
2023-05-12T04:59:15.198Z,13.90
2023-05-12T05:03:24.189Z,13.90
2023-05-12T05:07:32.920Z,13.90
2023-05-12T05:11:41.650Z,13.90
2023-05-12T05:15:54.023Z,13.90
2023-05-12T05:20:09.455Z,13.80
2023-05-12T05:24:12.963Z,13.80
2023-05-12T05:28:21.594Z,13.80
2023-05-12T05:32:30.244Z,13.80
2023-05-12T05:36:39.365Z,13.80
2023-05-12T05:40:53.533Z,13.80
2023-05-12T05:44:58.263Z,13.80
2023-05-12T05:49:06.985Z,13.80
2023-05-12T05:53:17.257Z,13.80
2023-05-12T05:57:27.573Z,13.80
2023-05-12T06:01:36.435Z,13.80
2023-05-12T06:05:45.381Z,13.90
2023-05-12T06:09:56.994Z,13.90
2023-05-12T06:14:25.000Z,13.90
2023-05-12T06:18:38.336Z,14.00
2023-05-12T06:22:47.041Z,14.10
2023-05-12T06:26:55.668Z,14.20
2023-05-12T06:31:23.691Z,14.10
2023-05-12T06:35:32.691Z,14.10
2023-05-12T06:39:41.441Z,14.20
2023-05-12T06:43:50.160Z,14.30
2023-05-12T06:47:58.842Z,14.40
2023-05-12T06:52:08.132Z,14.30
2023-05-12T06:56:17.312Z,14.40
2023-05-12T07:00:26.941Z,14.50
2023-05-12T07:04:36.293Z,14.60
2023-05-12T07:08:44.893Z,14.80
2023-05-12T07:12:53.841Z,14.80
2023-05-12T07:21:18.358Z,14.90
2023-05-12T07:25:28.183Z,14.90
2023-05-12T07:29:36.950Z,14.80
2023-05-12T07:33:45.654Z,14.90
2023-05-12T07:37:54.311Z,14.90
2023-05-12T07:42:03.377Z,14.80
2023-05-12T07:46:12.052Z,14.90
2023-05-12T07:50:21.428Z,15.00
2023-05-12T07:54:30.004Z,14.90
2023-05-12T07:58:38.628Z,14.90
2023-05-12T08:02:47.459Z,14.80
2023-05-12T08:06:56.361Z,14.90
2023-05-12T08:11:05.024Z,14.80
2023-05-12T08:15:13.903Z,14.70
2023-05-12T08:19:22.758Z,14.70
2023-05-12T08:23:31.476Z,14.70
2023-05-12T08:27:40.229Z,14.80
2023-05-12T08:31:48.940Z,14.80
2023-05-12T08:35:58.027Z,14.90
2023-05-12T08:40:09.972Z,15.00
2023-05-12T08:44:20.556Z,15.10
2023-05-12T08:48:32.115Z,15.10
2023-05-12T08:52:41.280Z,15.20
2023-05-12T09:01:06.290Z,15.20
2023-05-12T09:05:15.226Z,15.30
2023-05-12T09:09:25.992Z,15.30
2023-05-12T09:13:48.164Z,15.30
2023-05-12T09:17:56.854Z,15.20
2023-05-12T09:22:05.667Z,15.30
2023-05-12T09:26:14.296Z,15.30
2023-05-12T09:30:35.654Z,15.40
2023-05-12T09:34:44.863Z,15.50
2023-05-12T09:39:13.564Z,15.50
2023-05-12T09:43:22.292Z,15.60
2023-05-12T09:47:37.800Z,15.70
2023-05-12T09:51:46.740Z,15.80
2023-05-12T09:55:58.213Z,15.80
2023-05-12T10:00:31.216Z,15.90
2023-05-12T10:04:26.473Z,16.00
2023-05-12T10:08:57.887Z,16.00
2023-05-12T10:13:06.926Z,16.20
2023-05-12T10:17:16.189Z,16.30
2023-05-12T10:21:28.111Z,16.40
2023-05-12T10:25:36.911Z,16.50
2023-05-12T10:29:48.259Z,16.60
2023-05-12T10:33:59.081Z,16.70
2023-05-12T10:38:10.428Z,16.70
2023-05-12T10:42:27.090Z,16.90
2023-05-12T10:46:35.951Z,17.00
2023-05-12T10:50:55.276Z,17.00
2023-05-12T10:55:04.945Z,17.00
2023-05-12T10:59:19.610Z,17.20
2023-05-12T11:03:30.215Z,17.50
2023-05-12T11:08:00.457Z,17.80
2023-05-12T11:12:11.147Z,18.00
2023-05-12T11:16:21.304Z,18.20
2023-05-12T11:20:31.045Z,18.30
2023-05-12T11:24:42.582Z,18.40
2023-05-12T11:28:51.581Z,18.50
2023-05-12T11:33:04.362Z,18.60
2023-05-12T11:37:13.022Z,18.70
2023-05-12T11:41:27.834Z,18.80
2023-05-12T11:45:36.548Z,18.80
2023-05-12T11:49:55.948Z,18.90
2023-05-12T11:54:06.245Z,19.00
2023-05-12T11:58:18.090Z,19.10
2023-05-12T12:02:27.318Z,19.30
2023-05-12T12:06:39.187Z,19.50
2023-05-12T12:10:48.463Z,19.50
2023-05-12T12:14:58.745Z,19.40
2023-05-12T12:19:08.787Z,19.40
2023-05-12T12:23:17.642Z,19.40
2023-05-12T12:27:26.245Z,19.40
2023-05-12T12:31:36.409Z,19.40
2023-05-12T12:35:45.165Z,19.40
2023-05-12T12:39:54.306Z,19.50
2023-05-12T12:44:02.926Z,19.30
2023-05-12T12:48:11.746Z,19.20
2023-05-12T12:52:20.498Z,19.10
2023-05-12T12:56:29.959Z,19.10
2023-05-12T13:00:38.815Z,19.10
2023-05-12T13:04:47.507Z,19.20
2023-05-12T13:08:56.652Z,19.10
2023-05-12T13:13:06.279Z,19.20
2023-05-12T13:17:14.880Z,19.10
2023-05-12T13:21:23.669Z,19.10
2023-05-12T13:25:32.293Z,19.00
2023-05-12T13:29:42.177Z,18.90
2023-05-12T13:33:50.983Z,18.90
2023-05-12T13:38:00.467Z,19.00
2023-05-12T13:42:09.185Z,19.00
2023-05-12T13:46:17.817Z,19.10
2023-05-12T13:50:26.511Z,19.10
2023-05-12T13:54:35.157Z,19.10
2023-05-12T13:58:44.488Z,19.10
2023-05-12T14:02:53.232Z,19.20
2023-05-12T14:07:01.897Z,19.20
2023-05-12T14:11:11.404Z,19.30
2023-05-12T14:15:32.443Z,19.30
2023-05-12T14:19:30.576Z,19.50
2023-05-12T14:23:39.209Z,19.60
2023-05-12T14:27:49.457Z,19.70
2023-05-12T14:31:58.313Z,19.70
2023-05-12T14:36:08.722Z,19.90
2023-05-12T14:40:19.384Z,20.20
2023-05-12T14:44:28.449Z,20.40
2023-05-12T14:48:37.211Z,20.40
2023-05-12T14:52:52.741Z,20.40
2023-05-12T14:57:01.748Z,20.30
2023-05-12T15:01:10.453Z,20.20
2023-05-12T15:05:19.420Z,19.90
2023-05-12T15:09:28.391Z,19.50
2023-05-12T15:13:36.996Z,19.00
2023-05-12T15:17:45.686Z,18.40
2023-05-12T15:21:54.380Z,17.80
2023-05-12T15:26:21.079Z,17.50
2023-05-12T15:30:17.940Z,17.30
2023-05-12T15:34:26.550Z,17.10
2023-05-12T15:38:35.302Z,17.00
2023-05-12T15:42:44.382Z,17.00
2023-05-12T15:46:54.844Z,16.90
2023-05-12T15:51:07.797Z,16.90
2023-05-12T15:55:16.860Z,16.80
2023-05-12T15:59:26.121Z,16.80
2023-05-12T16:03:34.955Z,16.90
2023-05-12T16:07:44.965Z,17.00
2023-05-12T16:11:54.926Z,17.00
2023-05-12T16:16:23.162Z,16.80
2023-05-12T16:20:32.042Z,16.80
2023-05-12T16:24:41.085Z,16.80
2023-05-12T16:28:49.711Z,16.70
2023-05-12T16:32:58.501Z,16.60
2023-05-12T16:37:07.173Z,16.50
2023-05-12T16:41:16.052Z,16.50
2023-05-12T16:45:25.664Z,16.30
2023-05-12T16:49:34.475Z,16.20
2023-05-12T16:53:47.713Z,16.20
2023-05-12T16:57:56.594Z,16.20
2023-05-12T17:02:05.685Z,16.20
2023-05-12T17:06:14.335Z,16.20
2023-05-12T17:10:23.138Z,16.30
2023-05-12T17:14:32.145Z,16.30
2023-05-12T17:22:51.576Z,16.40
2023-05-12T17:27:00.214Z,16.40
2023-05-12T17:31:08.950Z,16.40
2023-05-12T17:35:18.215Z,16.40
2023-05-12T17:39:26.856Z,16.40
2023-05-12T17:43:35.573Z,16.40
2023-05-12T17:47:45.413Z,16.40
2023-05-12T17:56:26.488Z,16.40
2023-05-12T18:00:35.232Z,16.40
2023-05-12T18:04:43.910Z,16.40
2023-05-12T18:08:52.487Z,16.30
2023-05-12T18:13:01.168Z,16.30
2023-05-12T18:17:09.963Z,16.20
2023-05-12T18:21:19.040Z,16.20
2023-05-12T18:25:27.665Z,16.10
2023-05-12T18:29:36.410Z,16.10
2023-05-12T18:33:50.045Z,16.00
2023-05-12T18:37:59.902Z,16.00
2023-05-12T18:42:09.552Z,16.00
2023-05-12T18:46:18.954Z,16.00
2023-05-12T18:50:27.840Z,15.90
2023-05-12T18:54:37.319Z,15.80
2023-05-12T18:58:46.381Z,15.80
2023-05-12T19:03:14.506Z,15.70
2023-05-12T19:07:42.429Z,15.70
2023-05-12T19:11:51.343Z,15.60
2023-05-12T19:16:00.134Z,15.60
2023-05-12T19:20:10.653Z,15.50
2023-05-12T19:24:19.559Z,15.40
2023-05-12T19:28:48.736Z,15.40
2023-05-12T19:32:57.673Z,15.30
2023-05-12T19:37:06.955Z,15.20
2023-05-12T19:41:15.570Z,15.20
2023-05-12T19:45:24.288Z,15.10
2023-05-12T19:49:34.640Z,15.10
2023-05-12T19:53:43.747Z,15.10
2023-05-12T19:57:52.383Z,15.00
2023-05-12T20:02:01.127Z,15.00
2023-05-12T20:06:09.920Z,15.00
2023-05-12T20:10:18.755Z,14.90
2023-05-12T20:14:27.378Z,14.90
2023-05-12T20:18:36.020Z,14.90
2023-05-12T20:22:44.639Z,14.70
2023-05-12T20:26:53.278Z,14.70
2023-05-12T20:31:02.123Z,14.70
2023-05-12T20:35:10.948Z,14.70
2023-05-12T20:39:19.741Z,14.60
2023-05-12T20:43:28.397Z,14.60
2023-05-12T20:47:37.586Z,14.50
2023-05-12T20:51:46.392Z,14.50
2023-05-12T20:55:55.101Z,14.50
2023-05-12T21:00:04.153Z,14.40
2023-05-12T21:04:13.461Z,14.40
2023-05-12T21:08:22.211Z,14.30
2023-05-12T21:12:31.260Z,14.30
2023-05-12T21:16:40.038Z,14.20
2023-05-12T21:20:48.820Z,14.20
2023-05-12T21:24:57.804Z,14.10
2023-05-12T21:29:06.405Z,14.10
2023-05-12T21:33:34.471Z,14.00
2023-05-12T21:37:43.108Z,14.00
2023-05-12T21:41:51.722Z,13.90
2023-05-12T21:46:05.109Z,13.90
2023-05-12T21:50:13.820Z,13.90
2023-05-12T21:54:22.526Z,13.80
2023-05-12T21:58:50.950Z,13.80
2023-05-12T22:02:59.738Z,13.70
2023-05-12T22:07:08.663Z,13.60
2023-05-12T22:11:17.420Z,13.60
2023-05-12T22:15:26.154Z,13.50
2023-05-12T22:19:34.882Z,13.50
2023-05-12T22:23:43.716Z,13.40
2023-05-12T22:27:52.290Z,13.40
2023-05-12T22:32:00.973Z,13.40
2023-05-12T22:36:10.440Z,13.50
2023-05-12T22:40:20.896Z,13.40
2023-05-12T22:44:29.624Z,13.30
2023-05-12T22:48:39.584Z,13.20
2023-05-12T22:52:48.523Z,13.10
2023-05-12T22:56:57.255Z,13.20
2023-05-12T23:01:06.433Z,12.90
2023-05-12T23:05:15.433Z,12.70
2023-05-12T23:09:43.440Z,12.70
2023-05-12T23:13:52.144Z,12.80
2023-05-12T23:18:01.121Z,12.80
2023-05-12T23:22:29.270Z,12.80
2023-05-12T23:26:37.999Z,12.80
2023-05-12T23:30:46.635Z,12.80
2023-05-12T23:34:55.261Z,12.70
2023-05-12T23:39:04.133Z,12.70
2023-05-12T23:43:12.715Z,12.50
2023-05-12T23:47:21.434Z,12.40
2023-05-12T23:51:30.194Z,12.50
2023-05-12T23:55:58.269Z,12.50
